createdAt,value
2019-05-23T00:02:29.557Z,99.90
2019-05-23T00:05:05.488Z,99.90
2019-05-23T00:07:35.648Z,99.90
2019-05-23T00:10:08.181Z,99.90
2019-05-23T00:12:44.057Z,99.90
2019-05-23T00:15:25.709Z,99.90
2019-05-23T00:17:56.071Z,99.90
2019-05-23T00:20:25.688Z,99.90
2019-05-23T00:22:54.264Z,99.90
2019-05-23T00:25:23.564Z,99.90
2019-05-23T00:27:55.817Z,99.90
2019-05-23T00:30:26.065Z,99.90
2019-05-23T00:32:56.666Z,99.90
2019-05-23T00:35:26.539Z,99.90
2019-05-23T00:37:55.533Z,99.90
2019-05-23T00:40:24.167Z,99.90
2019-05-23T00:42:53.686Z,99.90
2019-05-23T00:45:23.126Z,99.90
2019-05-23T00:47:53.124Z,99.90
2019-05-23T00:50:21.528Z,99.90
2019-05-23T00:52:52.386Z,99.90
2019-05-23T00:55:22.471Z,99.90
2019-05-23T00:57:51.634Z,99.90
2019-05-23T01:00:21.244Z,99.90
2019-05-23T01:02:49.986Z,99.90
2019-05-23T01:05:18.687Z,99.90
2019-05-23T01:07:48.290Z,99.90
2019-05-23T01:10:18.434Z,99.90
2019-05-23T01:12:48.324Z,99.90
2019-05-23T01:15:18.810Z,99.90
2019-05-23T01:17:47.875Z,99.90
2019-05-23T01:20:18.703Z,99.90
2019-05-23T01:22:48.724Z,99.90
2019-05-23T01:25:19.243Z,99.90
2019-05-23T01:27:47.747Z,99.90
2019-05-23T01:30:18.677Z,99.90
2019-05-23T01:32:51.495Z,99.90
2019-05-23T01:35:21.597Z,99.90
2019-05-23T01:37:51.086Z,99.90
2019-05-23T01:40:20.211Z,99.90
2019-05-23T01:42:49.308Z,99.90
2019-05-23T01:45:19.310Z,99.90
2019-05-23T01:47:49.222Z,99.90
2019-05-23T01:50:20.630Z,99.90
2019-05-23T01:52:49.468Z,99.90
2019-05-23T01:55:18.731Z,99.90
2019-05-23T01:57:48.630Z,99.90
2019-05-23T02:00:17.943Z,99.90
2019-05-23T02:02:46.622Z,99.90
2019-05-23T02:05:15.214Z,99.90
2019-05-23T02:07:44.287Z,99.90
2019-05-23T02:10:13.085Z,99.90
2019-05-23T02:12:42.390Z,99.90
2019-05-23T02:15:11.886Z,99.90
2019-05-23T02:17:42.558Z,99.90
2019-05-23T02:20:14.313Z,99.90
2019-05-23T02:22:44.799Z,99.90
2019-05-23T02:25:18.506Z,99.90
2019-05-23T02:27:47.610Z,99.90
2019-05-23T02:30:33.037Z,99.90
2019-05-23T02:32:50.096Z,99.90
2019-05-23T02:35:19.396Z,99.90
2019-05-23T02:37:49.462Z,99.90
2019-05-23T02:40:25.983Z,99.90
2019-05-23T02:42:56.822Z,99.90
2019-05-23T02:45:43.539Z,99.90
2019-05-23T02:48:14.558Z,99.90
2019-05-23T02:50:59.325Z,99.90
2019-05-23T02:53:30.818Z,99.90
2019-05-23T02:56:02.357Z,99.90
2019-05-23T02:58:35.525Z,99.90
2019-05-23T03:01:27.661Z,99.90
2019-05-23T03:03:57.698Z,99.90
2019-05-23T03:06:27.084Z,99.90
2019-05-23T03:08:57.006Z,99.90
2019-05-23T03:11:32.961Z,99.90
2019-05-23T03:14:02.153Z,99.90
2019-05-23T03:16:32.416Z,99.90
2019-05-23T03:19:05.654Z,99.90
2019-05-23T03:21:36.181Z,99.90
2019-05-23T03:24:04.955Z,99.90
2019-05-23T03:26:51.532Z,99.90
2019-05-23T03:29:21.602Z,99.90
2019-05-23T03:31:57.399Z,99.90
2019-05-23T03:34:27.506Z,99.90
2019-05-23T03:36:56.800Z,99.90
2019-05-23T03:39:25.979Z,99.90
2019-05-23T03:41:54.479Z,99.90
2019-05-23T03:44:23.349Z,99.90
2019-05-23T03:46:53.241Z,99.90
2019-05-23T03:49:22.340Z,99.90
2019-05-23T03:51:51.398Z,99.90
2019-05-23T03:54:20.792Z,99.90
2019-05-23T03:56:49.642Z,99.90
2019-05-23T03:59:18.469Z,99.90
2019-05-23T04:01:49.352Z,99.90
2019-05-23T04:04:18.184Z,99.90
2019-05-23T04:06:49.548Z,99.90
2019-05-23T04:09:18.683Z,99.90
2019-05-23T04:11:47.573Z,99.90
2019-05-23T04:14:17.333Z,99.90
2019-05-23T04:16:47.483Z,99.90
2019-05-23T04:19:16.552Z,99.90
2019-05-23T04:21:45.271Z,99.90
2019-05-23T04:24:14.126Z,99.90
2019-05-23T04:26:42.890Z,99.90
2019-05-23T04:29:11.459Z,99.90
2019-05-23T04:31:40.055Z,99.90
2019-05-23T04:34:10.296Z,99.90
2019-05-23T04:36:39.178Z,99.90
2019-05-23T04:39:08.757Z,99.90
2019-05-23T04:41:38.291Z,99.90
2019-05-23T04:44:07.089Z,99.90
2019-05-23T04:46:36.167Z,99.90
2019-05-23T04:49:05.215Z,99.90
2019-05-23T04:51:34.982Z,99.90
2019-05-23T04:54:03.795Z,99.90
2019-05-23T04:56:32.357Z,99.90
2019-05-23T04:59:02.191Z,99.90
2019-05-23T05:01:31.955Z,99.90
2019-05-23T05:04:01.924Z,99.90
2019-05-23T05:06:31.597Z,99.90
2019-05-23T05:09:00.277Z,99.90
2019-05-23T05:11:30.536Z,99.90
2019-05-23T05:13:59.336Z,99.90
2019-05-23T05:16:28.070Z,99.90
2019-05-23T05:18:56.971Z,99.90
2019-05-23T05:21:25.533Z,99.90
2019-05-23T05:23:54.192Z,99.90
2019-05-23T05:26:23.850Z,99.90
2019-05-23T05:28:52.481Z,99.90
2019-05-23T05:31:21.183Z,99.90
2019-05-23T05:33:51.244Z,99.90
2019-05-23T05:36:20.014Z,99.90
2019-05-23T05:38:48.736Z,99.90
2019-05-23T05:41:17.268Z,99.90
2019-05-23T05:43:46.234Z,99.90
2019-05-23T05:46:14.741Z,99.90
2019-05-23T05:48:43.366Z,99.90
2019-05-23T05:51:12.131Z,99.90
2019-05-23T05:53:41.211Z,99.90
2019-05-23T05:56:09.773Z,99.90
2019-05-23T05:58:38.204Z,99.90
2019-05-23T06:01:08.401Z,99.90
2019-05-23T06:03:37.010Z,99.90
2019-05-23T06:06:25.500Z,99.90
2019-05-23T06:08:58.700Z,99.90
2019-05-23T06:11:28.880Z,99.90
2019-05-23T06:13:57.491Z,99.90
2019-05-23T06:16:26.781Z,99.90
2019-05-23T06:18:55.647Z,99.90
2019-05-23T06:21:25.971Z,99.90
2019-05-23T06:23:55.420Z,99.90
2019-05-23T06:26:24.019Z,99.90
2019-05-23T06:28:52.448Z,99.90
2019-05-23T06:31:21.623Z,99.90
2019-05-23T06:33:50.910Z,99.90
2019-05-23T06:36:19.590Z,99.90
2019-05-23T06:38:48.456Z,99.90
2019-05-23T06:41:21.866Z,99.90
2019-05-23T06:43:50.979Z,99.90
2019-05-23T06:46:19.836Z,99.90
2019-05-23T06:48:48.500Z,99.90
2019-05-23T06:51:19.268Z,99.90
2019-05-23T06:53:48.960Z,99.90
2019-05-23T06:56:17.681Z,98.90
2019-05-23T06:58:46.216Z,97.50
2019-05-23T07:01:14.803Z,96.70
2019-05-23T07:03:44.003Z,95.30
2019-05-23T07:06:15.820Z,95.50
2019-05-23T07:08:44.336Z,95.20
2019-05-23T07:11:12.980Z,94.40
2019-05-23T07:13:42.290Z,94.10
2019-05-23T07:16:11.209Z,95.40
2019-05-23T07:18:41.357Z,95.30
2019-05-23T07:21:11.058Z,94.50
2019-05-23T07:23:39.827Z,93.50
2019-05-23T07:26:08.637Z,91.80
2019-05-23T07:28:37.318Z,90.20
2019-05-23T07:31:06.288Z,91.10
2019-05-23T07:33:34.829Z,91.10
2019-05-23T07:36:03.405Z,91.10
2019-05-23T07:38:31.975Z,90.90
2019-05-23T07:41:00.608Z,92.40
2019-05-23T07:43:29.425Z,91.30
2019-05-23T07:45:59.155Z,90.20
2019-05-23T07:48:29.165Z,92.00
2019-05-23T07:50:57.652Z,93.00
2019-05-23T07:53:39.781Z,93.10
2019-05-23T07:56:10.086Z,93.70
2019-05-23T07:58:38.665Z,92.50
2019-05-23T08:01:11.553Z,90.10
2019-05-23T08:03:40.334Z,90.20
2019-05-23T08:06:09.480Z,91.40
2019-05-23T08:08:38.722Z,92.00
2019-05-23T08:11:08.812Z,90.30
2019-05-23T08:13:37.616Z,89.80
2019-05-23T08:16:06.290Z,89.80
2019-05-23T08:18:34.936Z,88.70
2019-05-23T08:21:03.485Z,90.10
2019-05-23T08:23:32.016Z,91.90
2019-05-23T08:26:00.715Z,89.40
2019-05-23T08:28:29.801Z,86.80
2019-05-23T08:30:58.450Z,85.50
2019-05-23T08:33:27.490Z,85.30
2019-05-23T08:35:56.823Z,83.90
2019-05-23T08:38:26.302Z,85.30
2019-05-23T08:40:54.743Z,90.70
2019-05-23T08:43:23.210Z,86.90
2019-05-23T08:45:52.384Z,80.90
2019-05-23T08:48:21.076Z,84.90
2019-05-23T08:50:51.560Z,85.30
2019-05-23T08:53:20.118Z,84.60
2019-05-23T08:55:49.777Z,83.00
2019-05-23T08:58:18.733Z,79.20
2019-05-23T09:00:48.272Z,82.50
2019-05-23T09:03:18.435Z,84.10
2019-05-23T09:05:48.862Z,79.40
2019-05-23T09:08:18.210Z,81.70
2019-05-23T09:10:47.506Z,85.30
2019-05-23T09:13:16.091Z,87.00
2019-05-23T09:15:44.810Z,82.90
2019-05-23T09:18:14.066Z,85.50
2019-05-23T09:20:42.865Z,83.00
2019-05-23T09:23:14.316Z,79.70
2019-05-23T09:25:43.220Z,80.00
2019-05-23T09:28:12.770Z,80.70
2019-05-23T09:30:41.323Z,81.20
2019-05-23T09:33:11.063Z,79.70
2019-05-23T09:35:40.668Z,77.20
2019-05-23T09:38:09.210Z,76.50
2019-05-23T09:40:38.278Z,78.00
2019-05-23T09:43:07.302Z,77.20
2019-05-23T09:45:37.636Z,76.30
2019-05-23T09:48:06.500Z,70.50
2019-05-23T09:50:37.007Z,70.10
2019-05-23T09:53:05.647Z,71.90
2019-05-23T09:55:35.819Z,75.70
2019-05-23T09:58:04.483Z,79.90
2019-05-23T10:00:34.868Z,81.20
2019-05-23T10:03:04.278Z,79.10
2019-05-23T10:05:42.879Z,76.90
2019-05-23T10:08:03.186Z,73.70
2019-05-23T10:10:32.176Z,73.30
2019-05-23T10:13:00.933Z,71.30
2019-05-23T10:15:33.241Z,68.80
2019-05-23T10:18:01.712Z,72.70
2019-05-23T10:20:31.954Z,73.10
2019-05-23T10:23:00.368Z,74.30
2019-05-23T10:25:29.290Z,72.80
2019-05-23T10:27:57.776Z,72.80
2019-05-23T10:30:26.528Z,69.70
2019-05-23T10:32:55.083Z,71.50
2019-05-23T10:35:25.027Z,74.20
2019-05-23T10:37:53.478Z,72.10
2019-05-23T10:40:22.657Z,75.70
2019-05-23T10:42:51.413Z,72.50
2019-05-23T10:45:20.490Z,71.20
2019-05-23T10:47:49.386Z,69.50
2019-05-23T10:50:18.147Z,71.60
2019-05-23T10:52:46.704Z,72.00
2019-05-23T10:55:15.403Z,71.40
2019-05-23T10:57:51.170Z,71.00
2019-05-23T11:00:23.605Z,72.10
2019-05-23T11:02:52.183Z,71.40
2019-05-23T11:05:21.175Z,71.30
2019-05-23T11:07:50.349Z,65.20
2019-05-23T11:10:19.804Z,67.20
2019-05-23T11:12:48.969Z,65.90
2019-05-23T11:15:17.666Z,68.00
2019-05-23T11:17:46.205Z,70.30
2019-05-23T11:20:17.142Z,72.80
2019-05-23T11:22:45.881Z,74.00
2019-05-23T11:25:15.085Z,72.10
2019-05-23T11:27:43.961Z,71.30
2019-05-23T11:30:14.896Z,69.40
2019-05-23T11:32:43.353Z,70.40
2019-05-23T11:35:12.043Z,70.20
2019-05-23T11:37:42.201Z,70.70
2019-05-23T11:40:11.172Z,68.20
2019-05-23T11:42:39.736Z,68.10
2019-05-23T11:45:09.042Z,68.30
2019-05-23T11:47:37.766Z,70.20
2019-05-23T11:50:14.190Z,69.50
2019-05-23T11:52:43.245Z,68.30
2019-05-23T11:55:12.563Z,67.10
2019-05-23T11:57:41.590Z,66.20
2019-05-23T12:00:12.475Z,63.80
2019-05-23T12:02:47.584Z,64.40
2019-05-23T12:05:26.710Z,65.40
2019-05-23T12:07:57.968Z,65.50
2019-05-23T12:10:26.772Z,64.70
2019-05-23T12:12:55.613Z,63.10
2019-05-23T12:15:30.019Z,63.30
2019-05-23T12:18:02.540Z,60.30
2019-05-23T12:20:31.387Z,61.40
2019-05-23T12:23:00.045Z,62.10
2019-05-23T12:25:30.412Z,64.40
2019-05-23T12:28:00.075Z,60.80
2019-05-23T12:30:29.586Z,63.50
2019-05-23T12:32:58.207Z,63.00
2019-05-23T12:35:29.926Z,62.20
2019-05-23T12:38:02.213Z,63.30
2019-05-23T12:40:28.969Z,64.70
2019-05-23T12:42:57.702Z,64.10
2019-05-23T12:45:26.345Z,64.90
2019-05-23T12:48:05.474Z,65.10
2019-05-23T12:50:38.792Z,63.70
2019-05-23T12:53:09.342Z,65.10
2019-05-23T12:55:38.281Z,62.10
2019-05-23T12:58:07.269Z,62.20
2019-05-23T13:00:43.379Z,60.20
2019-05-23T13:03:13.634Z,58.00
2019-05-23T13:05:42.764Z,58.70
2019-05-23T13:08:11.366Z,60.00
2019-05-23T13:10:40.428Z,59.90
2019-05-23T13:13:09.118Z,60.00
2019-05-23T13:15:37.626Z,60.90
2019-05-23T13:18:06.230Z,59.50
2019-05-23T13:20:35.092Z,59.90
2019-05-23T13:23:03.749Z,58.80
2019-05-23T13:25:32.535Z,59.50
2019-05-23T13:28:01.284Z,59.50
2019-05-23T13:30:30.264Z,59.60
2019-05-23T13:33:03.205Z,62.70
2019-05-23T13:35:30.928Z,61.20
2019-05-23T13:37:59.761Z,61.20
2019-05-23T13:40:28.617Z,59.30
2019-05-23T13:42:58.097Z,58.50
2019-05-23T13:45:26.775Z,59.30
2019-05-23T13:47:55.291Z,60.60
2019-05-23T13:50:24.615Z,60.20
2019-05-23T13:52:53.138Z,60.60
2019-05-23T13:55:21.858Z,61.40
2019-05-23T13:57:50.759Z,60.60
2019-05-23T14:00:20.588Z,59.90
2019-05-23T14:02:49.571Z,59.80
2019-05-23T14:05:19.343Z,59.30
2019-05-23T14:07:48.683Z,58.50
2019-05-23T14:10:18.355Z,58.20
2019-05-23T14:12:47.001Z,59.60
2019-05-23T14:15:17.326Z,61.70
2019-05-23T14:17:47.333Z,63.20
2019-05-23T14:20:16.535Z,64.40
2019-05-23T14:22:50.193Z,60.50
2019-05-23T14:25:18.991Z,60.80
2019-05-23T14:27:49.210Z,60.00
2019-05-23T14:30:31.584Z,62.10
2019-05-23T14:33:10.653Z,62.60
2019-05-23T14:35:42.902Z,65.80
2019-05-23T14:38:29.209Z,63.10
2019-05-23T14:40:45.070Z,64.00
2019-05-23T14:43:29.447Z,61.70
2019-05-23T14:46:05.876Z,63.00
2019-05-23T14:48:48.316Z,67.80
2019-05-23T14:51:21.281Z,64.20
2019-05-23T14:53:53.395Z,62.20
2019-05-23T14:56:23.690Z,64.00
2019-05-23T14:58:52.806Z,65.00
2019-05-23T15:01:25.999Z,64.80
2019-05-23T15:03:58.203Z,59.50
2019-05-23T15:06:27.419Z,60.00
2019-05-23T15:08:56.339Z,61.30
2019-05-23T15:11:26.925Z,63.10
2019-05-23T15:13:57.396Z,63.20
2019-05-23T15:16:26.343Z,61.20
2019-05-23T15:18:56.833Z,61.40
2019-05-23T15:21:25.344Z,62.60
2019-05-23T15:23:54.315Z,63.50
2019-05-23T15:26:23.964Z,69.70
2019-05-23T15:28:52.930Z,72.10
2019-05-23T15:31:21.922Z,71.10
2019-05-23T15:33:52.826Z,77.50
2019-05-23T15:36:21.307Z,77.20
2019-05-23T15:39:07.654Z,75.00
2019-05-23T15:41:20.165Z,73.00
2019-05-23T15:43:48.768Z,71.50
2019-05-23T15:46:17.260Z,73.30
2019-05-23T15:48:46.010Z,75.00
2019-05-23T15:51:16.248Z,74.80
2019-05-23T15:53:49.259Z,82.00
2019-05-23T15:56:34.410Z,76.90
2019-05-23T15:59:12.543Z,75.80
2019-05-23T16:02:01.135Z,80.30
2019-05-23T16:04:29.831Z,81.90
2019-05-23T16:06:58.850Z,84.50
2019-05-23T16:09:30.864Z,85.20
2019-05-23T16:11:58.884Z,84.80
2019-05-23T16:14:27.483Z,84.70
2019-05-23T16:16:57.204Z,83.10
2019-05-23T16:19:26.268Z,70.60
2019-05-23T16:21:55.100Z,65.90
2019-05-23T16:24:23.725Z,67.20
2019-05-23T16:26:52.307Z,78.80
2019-05-23T16:29:20.911Z,78.50
2019-05-23T16:31:49.470Z,81.40
2019-05-23T16:34:18.042Z,75.40
2019-05-23T16:36:46.518Z,65.40
2019-05-23T16:39:15.128Z,62.10
2019-05-23T16:41:43.662Z,62.40
2019-05-23T16:44:12.223Z,62.20
2019-05-23T16:46:41.026Z,59.80
2019-05-23T16:49:09.779Z,61.00
2019-05-23T16:51:38.477Z,61.20
2019-05-23T16:54:07.235Z,61.40
2019-05-23T16:56:37.827Z,60.40
2019-05-23T16:59:13.703Z,59.90
2019-05-23T17:01:55.611Z,59.80
2019-05-23T17:04:30.161Z,59.90
2019-05-23T17:07:03.281Z,61.10
2019-05-23T17:09:39.199Z,61.40
2019-05-23T17:12:12.552Z,60.90
2019-05-23T17:14:54.388Z,60.40
2019-05-23T17:17:48.846Z,59.80
2019-05-23T17:19:56.781Z,59.50
2019-05-23T17:22:42.768Z,61.10
2019-05-23T17:25:15.627Z,60.70
2019-05-23T17:27:48.010Z,61.10
2019-05-23T17:30:18.461Z,61.00
2019-05-23T17:32:47.509Z,60.80
2019-05-23T17:35:16.018Z,61.60
2019-05-23T17:37:44.501Z,62.00
2019-05-23T17:40:24.439Z,62.70
2019-05-23T17:42:43.466Z,62.80
2019-05-23T17:45:14.119Z,62.30
2019-05-23T17:47:42.323Z,63.60
2019-05-23T17:50:11.172Z,63.20
2019-05-23T17:52:39.684Z,63.10
2019-05-23T17:55:10.078Z,64.10
2019-05-23T17:57:38.586Z,65.20
2019-05-23T18:00:09.725Z,64.00
2019-05-23T18:02:38.358Z,64.20
2019-05-23T18:05:09.019Z,65.70
2019-05-23T18:07:39.348Z,67.40
2019-05-23T18:10:08.489Z,67.30
2019-05-23T18:12:37.353Z,78.00
2019-05-23T18:15:09.316Z,80.40
2019-05-23T18:17:38.105Z,82.50
2019-05-23T18:20:08.230Z,85.80
2019-05-23T18:22:37.049Z,85.90
2019-05-23T18:25:08.878Z,84.50
2019-05-23T18:27:37.633Z,87.60
2019-05-23T18:30:08.610Z,89.10
2019-05-23T18:32:38.908Z,90.00
2019-05-23T18:35:09.201Z,90.60
2019-05-23T18:37:38.022Z,90.80
2019-05-23T18:40:07.095Z,91.20
2019-05-23T18:42:36.006Z,92.10
2019-05-23T18:45:09.469Z,92.60
2019-05-23T18:47:39.524Z,93.60
2019-05-23T18:50:08.834Z,94.30
2019-05-23T18:52:37.459Z,94.40
2019-05-23T18:55:07.032Z,94.90
2019-05-23T18:57:36.433Z,95.50
2019-05-23T19:00:06.793Z,97.00
2019-05-23T19:02:35.891Z,98.20
2019-05-23T19:05:08.427Z,99.30
2019-05-23T19:07:39.154Z,99.60
2019-05-23T19:10:08.976Z,99.70
2019-05-23T19:12:37.641Z,99.90
2019-05-23T19:15:08.205Z,99.90
2019-05-23T19:17:38.106Z,99.90
2019-05-23T19:20:07.808Z,99.90
2019-05-23T19:22:37.306Z,99.90
2019-05-23T19:25:08.164Z,99.90
2019-05-23T19:27:37.134Z,99.90
2019-05-23T19:30:06.777Z,99.90
2019-05-23T19:32:35.760Z,99.90
2019-05-23T19:35:06.167Z,99.90
2019-05-23T19:37:34.755Z,99.90
2019-05-23T19:40:04.729Z,99.90
2019-05-23T19:42:33.456Z,99.90
2019-05-23T19:45:01.950Z,99.90
2019-05-23T19:47:31.023Z,99.90
2019-05-23T19:49:59.708Z,99.90
2019-05-23T19:52:29.027Z,99.90
2019-05-23T19:54:57.917Z,99.90
2019-05-23T19:57:26.559Z,99.90
2019-05-23T19:59:55.206Z,99.90
2019-05-23T20:02:41.666Z,99.90
2019-05-23T20:05:28.502Z,99.90
2019-05-23T20:07:57.622Z,99.90
2019-05-23T20:10:26.660Z,99.90
2019-05-23T20:12:55.366Z,99.90
2019-05-23T20:15:24.695Z,99.90
2019-05-23T20:17:53.613Z,99.90
2019-05-23T20:20:25.317Z,99.90
2019-05-23T20:22:54.009Z,99.90
2019-05-23T20:25:24.519Z,99.90
2019-05-23T20:27:53.603Z,99.90
2019-05-23T20:30:37.302Z,99.90
2019-05-23T20:33:06.137Z,99.90
2019-05-23T20:35:36.547Z,99.90
2019-05-23T20:38:05.362Z,99.90
2019-05-23T20:40:34.465Z,99.90
2019-05-23T20:43:03.368Z,99.90
2019-05-23T20:45:31.943Z,99.90
2019-05-23T20:48:00.699Z,99.90
2019-05-23T20:50:29.978Z,99.90
2019-05-23T20:52:59.062Z,99.90
2019-05-23T20:55:27.763Z,99.90
2019-05-23T20:57:56.640Z,99.90
2019-05-23T21:00:32.989Z,99.90
2019-05-23T21:03:02.298Z,99.90
2019-05-23T21:05:34.327Z,99.90
2019-05-23T21:08:03.028Z,99.90
2019-05-23T21:10:40.224Z,99.90
2019-05-23T21:13:08.746Z,99.90
2019-05-23T21:15:40.544Z,99.90
2019-05-23T21:18:08.205Z,99.90
2019-05-23T21:20:37.085Z,99.90
2019-05-23T21:23:08.215Z,99.90
2019-05-23T21:25:38.630Z,99.90
2019-05-23T21:28:10.173Z,99.90
2019-05-23T21:30:40.290Z,99.90
2019-05-23T21:33:11.652Z,99.90
2019-05-23T21:35:40.186Z,99.90
2019-05-23T21:38:09.014Z,99.90
2019-05-23T21:40:39.970Z,99.90
2019-05-23T21:43:08.723Z,99.90
2019-05-23T21:45:40.685Z,99.90
2019-05-23T21:48:09.509Z,99.90
2019-05-23T21:50:39.405Z,99.90
2019-05-23T21:53:09.011Z,99.90
2019-05-23T21:55:43.936Z,99.90
2019-05-23T21:58:15.784Z,99.90
2019-05-23T22:01:00.372Z,99.90
2019-05-23T22:03:39.714Z,99.90
2019-05-23T22:06:05.310Z,99.90
2019-05-23T22:08:34.351Z,99.90
2019-05-23T22:11:03.412Z,99.90
2019-05-23T22:13:31.908Z,99.90
2019-05-23T22:16:02.014Z,99.90
2019-05-23T22:18:31.258Z,99.90
2019-05-23T22:20:59.978Z,99.90
2019-05-23T22:23:28.730Z,99.90
2019-05-23T22:25:57.274Z,99.90
2019-05-23T22:28:25.802Z,99.90
2019-05-23T22:30:54.509Z,99.90
2019-05-23T22:33:24.674Z,99.90
2019-05-23T22:35:57.088Z,99.90
2019-05-23T22:38:25.597Z,99.90
2019-05-23T22:40:54.387Z,99.90
2019-05-23T22:43:23.066Z,99.90
2019-05-23T22:45:51.657Z,99.90
2019-05-23T22:48:20.964Z,99.90
2019-05-23T22:50:49.417Z,99.90
2019-05-23T22:53:18.105Z,99.90
2019-05-23T22:55:48.300Z,99.90
2019-05-23T22:58:16.947Z,99.90
2019-05-23T23:00:47.163Z,99.90
2019-05-23T23:03:15.718Z,99.90
2019-05-23T23:05:44.263Z,99.90
2019-05-23T23:08:13.218Z,99.90
2019-05-23T23:10:42.011Z,99.90
2019-05-23T23:13:10.844Z,99.90
2019-05-23T23:15:41.683Z,99.90
2019-05-23T23:18:10.330Z,99.90
2019-05-23T23:20:38.838Z,99.90
2019-05-23T23:23:07.371Z,99.90
2019-05-23T23:25:35.799Z,99.90
2019-05-23T23:28:04.481Z,99.90
2019-05-23T23:30:34.572Z,99.90
2019-05-23T23:33:03.139Z,99.90
2019-05-23T23:35:31.663Z,99.90
2019-05-23T23:38:00.139Z,99.90
2019-05-23T23:40:28.741Z,99.90
2019-05-23T23:43:00.394Z,99.90
2019-05-23T23:45:46.655Z,99.90
2019-05-23T23:48:32.764Z,99.90
2019-05-23T23:51:18.939Z,99.90
2019-05-23T23:54:05.430Z,99.90
2019-05-23T23:56:51.621Z,99.90
2019-05-23T23:59:19.564Z,99.90
